sensor_id;sensor_type;location;lat;lon;timestamp;P1;durP1;ratioP1;P2;durP2;ratioP2
59872;SDS011;50750;51.636;4.948;2023-06-14T00:00:32;4.60;;;3.30;;
59872;SDS011;50750;51.636;4.948;2023-06-14T00:03:20;4.30;;;3.30;;
59872;SDS011;50750;51.636;4.948;2023-06-14T00:05:48;3.90;;;3.30;;
59872;SDS011;50750;51.636;4.948;2023-06-14T00:08:14;4.00;;;3.10;;
59872;SDS011;50750;51.636;4.948;2023-06-14T00:10:41;4.20;;;3.60;;
59872;SDS011;50750;51.636;4.948;2023-06-14T00:13:08;4.10;;;3.20;;
59872;SDS011;50750;51.636;4.948;2023-06-14T00:15:35;5.00;;;3.40;;
59872;SDS011;50750;51.636;4.948;2023-06-14T00:18:02;4.70;;;3.20;;
59872;SDS011;50750;51.636;4.948;2023-06-14T00:20:30;4.30;;;3.30;;
59872;SDS011;50750;51.636;4.948;2023-06-14T00:22:59;4.40;;;3.00;;
59872;SDS011;50750;51.636;4.948;2023-06-14T00:25:26;3.50;;;3.00;;
59872;SDS011;50750;51.636;4.948;2023-06-14T00:27:56;4.30;;;3.30;;
59872;SDS011;50750;51.636;4.948;2023-06-14T00:30:24;5.80;;;3.30;;
59872;SDS011;50750;51.636;4.948;2023-06-14T00:32:51;4.50;;;3.30;;
59872;SDS011;50750;51.636;4.948;2023-06-14T00:35:17;5.00;;;2.80;;
59872;SDS011;50750;51.636;4.948;2023-06-14T00:37:44;3.90;;;2.90;;
59872;SDS011;50750;51.636;4.948;2023-06-14T00:40:10;3.70;;;3.10;;
59872;SDS011;50750;51.636;4.948;2023-06-14T00:42:36;4.30;;;3.10;;
59872;SDS011;50750;51.636;4.948;2023-06-14T00:45:04;3.70;;;3.20;;
59872;SDS011;50750;51.636;4.948;2023-06-14T00:47:31;3.90;;;3.00;;
59872;SDS011;50750;51.636;4.948;2023-06-14T00:49:57;3.80;;;2.90;;
59872;SDS011;50750;51.636;4.948;2023-06-14T00:52:26;3.70;;;2.80;;
59872;SDS011;50750;51.636;4.948;2023-06-14T00:54:52;3.90;;;2.90;;
59872;SDS011;50750;51.636;4.948;2023-06-14T00:57:19;4.60;;;3.00;;
59872;SDS011;50750;51.636;4.948;2023-06-14T00:59:47;3.90;;;3.00;;
59872;SDS011;50750;51.636;4.948;2023-06-14T01:02:15;7.20;;;3.30;;
59872;SDS011;50750;51.636;4.948;2023-06-14T01:04:43;3.70;;;2.90;;
59872;SDS011;50750;51.636;4.948;2023-06-14T01:13:11;3.90;;;3.20;;
59872;SDS011;50750;51.636;4.948;2023-06-14T01:15:44;4.60;;;2.70;;
59872;SDS011;50750;51.636;4.948;2023-06-14T01:18:12;4.70;;;3.10;;
59872;SDS011;50750;51.636;4.948;2023-06-14T01:20:44;3.70;;;2.90;;
59872;SDS011;50750;51.636;4.948;2023-06-14T01:23:19;4.00;;;3.00;;
59872;SDS011;50750;51.636;4.948;2023-06-14T01:25:47;3.80;;;2.90;;
59872;SDS011;50750;51.636;4.948;2023-06-14T01:28:19;5.20;;;3.30;;
59872;SDS011;50750;51.636;4.948;2023-06-14T01:30:47;3.90;;;3.00;;
59872;SDS011;50750;51.636;4.948;2023-06-14T01:33:18;5.20;;;3.00;;
59872;SDS011;50750;51.636;4.948;2023-06-14T01:35:47;6.30;;;3.00;;
59872;SDS011;50750;51.636;4.948;2023-06-14T01:38:17;4.20;;;3.00;;
59872;SDS011;50750;51.636;4.948;2023-06-14T01:40:46;4.50;;;3.10;;
59872;SDS011;50750;51.636;4.948;2023-06-14T01:43:14;3.80;;;2.90;;
59872;SDS011;50750;51.636;4.948;2023-06-14T01:45:42;4.50;;;3.20;;
59872;SDS011;50750;51.636;4.948;2023-06-14T01:48:10;3.60;;;2.80;;
59872;SDS011;50750;51.636;4.948;2023-06-14T01:50:38;3.60;;;3.00;;
59872;SDS011;50750;51.636;4.948;2023-06-14T01:53:06;6.80;;;3.20;;
59872;SDS011;50750;51.636;4.948;2023-06-14T01:55:34;3.60;;;2.90;;
59872;SDS011;50750;51.636;4.948;2023-06-14T01:58:04;4.40;;;2.70;;
59872;SDS011;50750;51.636;4.948;2023-06-14T02:00:31;4.40;;;2.60;;
59872;SDS011;50750;51.636;4.948;2023-06-14T02:02:57;3.90;;;2.70;;
59872;SDS011;50750;51.636;4.948;2023-06-14T02:05:24;3.60;;;2.60;;
59872;SDS011;50750;51.636;4.948;2023-06-14T02:07:50;3.40;;;2.80;;
59872;SDS011;50750;51.636;4.948;2023-06-14T02:10:16;3.50;;;3.00;;
59872;SDS011;50750;51.636;4.948;2023-06-14T02:12:43;4.50;;;2.80;;
59872;SDS011;50750;51.636;4.948;2023-06-14T02:15:10;4.50;;;3.00;;
59872;SDS011;50750;51.636;4.948;2023-06-14T02:17:43;3.40;;;2.60;;
59872;SDS011;50750;51.636;4.948;2023-06-14T02:20:10;4.00;;;3.00;;
59872;SDS011;50750;51.636;4.948;2023-06-14T02:22:37;3.90;;;2.80;;
59872;SDS011;50750;51.636;4.948;2023-06-14T02:25:03;3.60;;;2.70;;
59872;SDS011;50750;51.636;4.948;2023-06-14T02:27:30;3.50;;;2.60;;
59872;SDS011;50750;51.636;4.948;2023-06-14T02:29:56;4.00;;;3.00;;
59872;SDS011;50750;51.636;4.948;2023-06-14T02:32:23;3.60;;;2.70;;
59872;SDS011;50750;51.636;4.948;2023-06-14T02:34:49;3.80;;;2.70;;
59872;SDS011;50750;51.636;4.948;2023-06-14T02:37:16;4.00;;;2.50;;
59872;SDS011;50750;51.636;4.948;2023-06-14T02:39:42;3.20;;;2.60;;
59872;SDS011;50750;51.636;4.948;2023-06-14T02:42:09;3.90;;;2.70;;
59872;SDS011;50750;51.636;4.948;2023-06-14T02:44:36;3.30;;;2.60;;
59872;SDS011;50750;51.636;4.948;2023-06-14T02:47:03;4.00;;;2.80;;
59872;SDS011;50750;51.636;4.948;2023-06-14T02:49:31;5.60;;;2.70;;
59872;SDS011;50750;51.636;4.948;2023-06-14T02:51:57;3.40;;;2.70;;
59872;SDS011;50750;51.636;4.948;2023-06-14T02:54:23;4.50;;;2.80;;
59872;SDS011;50750;51.636;4.948;2023-06-14T02:56:50;3.30;;;2.50;;
59872;SDS011;50750;51.636;4.948;2023-06-14T02:59:16;4.30;;;2.80;;
59872;SDS011;50750;51.636;4.948;2023-06-14T03:01:43;4.50;;;2.60;;
59872;SDS011;50750;51.636;4.948;2023-06-14T03:04:09;3.70;;;2.60;;
59872;SDS011;50750;51.636;4.948;2023-06-14T03:06:36;3.80;;;2.60;;
59872;SDS011;50750;51.636;4.948;2023-06-14T03:09:03;4.00;;;2.60;;
59872;SDS011;50750;51.636;4.948;2023-06-14T03:11:32;4.10;;;2.60;;
59872;SDS011;50750;51.636;4.948;2023-06-14T03:13:59;3.50;;;2.60;;
59872;SDS011;50750;51.636;4.948;2023-06-14T03:16:26;4.00;;;2.80;;
59872;SDS011;50750;51.636;4.948;2023-06-14T03:18:55;4.20;;;2.60;;
59872;SDS011;50750;51.636;4.948;2023-06-14T03:21:22;4.20;;;2.60;;
59872;SDS011;50750;51.636;4.948;2023-06-14T03:23:48;4.00;;;2.60;;
59872;SDS011;50750;51.636;4.948;2023-06-14T03:26:15;3.40;;;2.40;;
59872;SDS011;50750;51.636;4.948;2023-06-14T03:28:44;4.20;;;2.40;;
59872;SDS011;50750;51.636;4.948;2023-06-14T03:31:15;3.30;;;2.50;;
59872;SDS011;50750;51.636;4.948;2023-06-14T03:33:42;3.90;;;2.40;;
59872;SDS011;50750;51.636;4.948;2023-06-14T03:36:08;3.20;;;2.50;;
59872;SDS011;50750;51.636;4.948;2023-06-14T03:38:35;4.20;;;2.50;;
59872;SDS011;50750;51.636;4.948;2023-06-14T03:41:01;3.50;;;2.60;;
59872;SDS011;50750;51.636;4.948;2023-06-14T03:43:28;3.00;;;2.20;;
59872;SDS011;50750;51.636;4.948;2023-06-14T03:45:56;3.00;;;2.30;;
59872;SDS011;50750;51.636;4.948;2023-06-14T03:48:23;3.70;;;2.50;;
59872;SDS011;50750;51.636;4.948;2023-06-14T03:50:49;3.80;;;2.30;;
59872;SDS011;50750;51.636;4.948;2023-06-14T03:53:16;3.60;;;2.60;;
59872;SDS011;50750;51.636;4.948;2023-06-14T03:55:43;3.20;;;2.40;;
59872;SDS011;50750;51.636;4.948;2023-06-14T03:58:09;4.00;;;2.50;;
59872;SDS011;50750;51.636;4.948;2023-06-14T04:00:36;4.10;;;2.60;;
59872;SDS011;50750;51.636;4.948;2023-06-14T04:03:03;4.00;;;2.50;;
59872;SDS011;50750;51.636;4.948;2023-06-14T04:05:31;3.30;;;2.30;;
59872;SDS011;50750;51.636;4.948;2023-06-14T04:07:58;4.10;;;2.40;;
59872;SDS011;50750;51.636;4.948;2023-06-14T04:10:25;3.70;;;2.40;;
59872;SDS011;50750;51.636;4.948;2023-06-14T04:12:51;3.40;;;2.10;;
59872;SDS011;50750;51.636;4.948;2023-06-14T04:15:17;3.40;;;2.20;;
59872;SDS011;50750;51.636;4.948;2023-06-14T04:17:44;3.10;;;2.40;;
59872;SDS011;50750;51.636;4.948;2023-06-14T04:20:11;3.90;;;2.30;;
59872;SDS011;50750;51.636;4.948;2023-06-14T04:22:37;3.40;;;2.30;;
59872;SDS011;50750;51.636;4.948;2023-06-14T04:25:04;2.90;;;2.20;;
59872;SDS011;50750;51.636;4.948;2023-06-14T04:27:32;4.10;;;2.30;;
59872;SDS011;50750;51.636;4.948;2023-06-14T04:30:02;3.60;;;2.60;;
59872;SDS011;50750;51.636;4.948;2023-06-14T04:32:30;4.60;;;2.60;;
59872;SDS011;50750;51.636;4.948;2023-06-14T04:34:59;3.10;;;2.20;;
59872;SDS011;50750;51.636;4.948;2023-06-14T04:37:28;3.40;;;2.40;;
59872;SDS011;50750;51.636;4.948;2023-06-14T04:39:56;3.40;;;2.50;;
59872;SDS011;50750;51.636;4.948;2023-06-14T04:42:23;3.50;;;2.40;;
59872;SDS011;50750;51.636;4.948;2023-06-14T04:44:57;3.00;;;2.00;;
59872;SDS011;50750;51.636;4.948;2023-06-14T04:47:23;4.00;;;2.70;;
59872;SDS011;50750;51.636;4.948;2023-06-14T04:49:56;2.90;;;2.30;;
59872;SDS011;50750;51.636;4.948;2023-06-14T04:52:23;3.00;;;2.10;;
59872;SDS011;50750;51.636;4.948;2023-06-14T04:54:52;3.00;;;2.20;;
59872;SDS011;50750;51.636;4.948;2023-06-14T04:57:20;3.20;;;2.20;;
59872;SDS011;50750;51.636;4.948;2023-06-14T04:59:48;3.10;;;2.30;;
59872;SDS011;50750;51.636;4.948;2023-06-14T05:02:17;3.40;;;2.20;;
59872;SDS011;50750;51.636;4.948;2023-06-14T05:04:44;3.80;;;2.00;;
59872;SDS011;50750;51.636;4.948;2023-06-14T05:07:11;3.90;;;2.00;;
59872;SDS011;50750;51.636;4.948;2023-06-14T05:09:37;3.20;;;2.00;;
59872;SDS011;50750;51.636;4.948;2023-06-14T05:12:03;3.20;;;2.20;;
59872;SDS011;50750;51.636;4.948;2023-06-14T05:14:30;3.60;;;2.00;;
59872;SDS011;50750;51.636;4.948;2023-06-14T05:16:57;3.00;;;2.10;;
59872;SDS011;50750;51.636;4.948;2023-06-14T05:19:23;3.30;;;2.30;;
59872;SDS011;50750;51.636;4.948;2023-06-14T05:21:49;3.00;;;1.90;;
59872;SDS011;50750;51.636;4.948;2023-06-14T05:24:16;3.10;;;2.10;;
59872;SDS011;50750;51.636;4.948;2023-06-14T05:26:46;3.30;;;2.00;;
59872;SDS011;50750;51.636;4.948;2023-06-14T05:29:12;2.90;;;1.90;;
59872;SDS011;50750;51.636;4.948;2023-06-14T05:31:39;3.30;;;1.90;;
59872;SDS011;50750;51.636;4.948;2023-06-14T05:34:05;3.00;;;2.00;;
59872;SDS011;50750;51.636;4.948;2023-06-14T05:36:32;2.90;;;2.00;;
59872;SDS011;50750;51.636;4.948;2023-06-14T05:38:58;3.10;;;2.00;;
59872;SDS011;50750;51.636;4.948;2023-06-14T05:41:26;2.90;;;2.00;;
59872;SDS011;50750;51.636;4.948;2023-06-14T05:43:56;2.90;;;1.90;;
59872;SDS011;50750;51.636;4.948;2023-06-14T05:46:23;3.50;;;2.20;;
59872;SDS011;50750;51.636;4.948;2023-06-14T05:48:51;3.60;;;2.20;;
59872;SDS011;50750;51.636;4.948;2023-06-14T05:51:19;3.40;;;2.00;;
59872;SDS011;50750;51.636;4.948;2023-06-14T05:53:45;3.00;;;1.90;;
59872;SDS011;50750;51.636;4.948;2023-06-14T05:56:13;3.10;;;2.20;;
59872;SDS011;50750;51.636;4.948;2023-06-14T05:58:40;3.30;;;2.00;;
59872;SDS011;50750;51.636;4.948;2023-06-14T06:01:07;3.70;;;2.10;;
59872;SDS011;50750;51.636;4.948;2023-06-14T06:03:33;3.70;;;2.10;;
59872;SDS011;50750;51.636;4.948;2023-06-14T06:06:00;3.10;;;1.70;;
59872;SDS011;50750;51.636;4.948;2023-06-14T06:08:27;2.70;;;1.80;;
59872;SDS011;50750;51.636;4.948;2023-06-14T06:10:53;3.20;;;2.20;;
59872;SDS011;50750;51.636;4.948;2023-06-14T06:13:19;3.50;;;2.00;;
59872;SDS011;50750;51.636;4.948;2023-06-14T06:15:46;4.40;;;2.10;;
59872;SDS011;50750;51.636;4.948;2023-06-14T06:18:12;3.60;;;2.20;;
59872;SDS011;50750;51.636;4.948;2023-06-14T06:20:39;2.90;;;2.10;;
59872;SDS011;50750;51.636;4.948;2023-06-14T06:23:05;3.20;;;2.20;;
59872;SDS011;50750;51.636;4.948;2023-06-14T06:25:31;2.60;;;1.90;;
59872;SDS011;50750;51.636;4.948;2023-06-14T06:27:58;4.00;;;1.70;;
59872;SDS011;50750;51.636;4.948;2023-06-14T06:30:25;3.40;;;2.10;;
59872;SDS011;50750;51.636;4.948;2023-06-14T06:32:52;3.70;;;2.00;;
59872;SDS011;50750;51.636;4.948;2023-06-14T06:35:19;6.30;;;2.40;;
59872;SDS011;50750;51.636;4.948;2023-06-14T06:37:45;3.80;;;2.20;;
59872;SDS011;50750;51.636;4.948;2023-06-14T06:40:12;4.00;;;2.30;;
59872;SDS011;50750;51.636;4.948;2023-06-14T06:42:38;4.00;;;2.10;;
59872;SDS011;50750;51.636;4.948;2023-06-14T06:45:05;4.70;;;2.20;;
59872;SDS011;50750;51.636;4.948;2023-06-14T06:47:32;3.20;;;2.00;;
59872;SDS011;50750;51.636;4.948;2023-06-14T06:49:58;3.40;;;2.10;;
59872;SDS011;50750;51.636;4.948;2023-06-14T06:52:25;3.70;;;2.20;;
59872;SDS011;50750;51.636;4.948;2023-06-14T06:54:52;4.50;;;2.20;;
59872;SDS011;50750;51.636;4.948;2023-06-14T06:57:21;3.70;;;2.30;;
59872;SDS011;50750;51.636;4.948;2023-06-14T06:59:51;5.90;;;2.00;;
59872;SDS011;50750;51.636;4.948;2023-06-14T07:02:17;3.30;;;2.00;;
59872;SDS011;50750;51.636;4.948;2023-06-14T07:04:44;3.60;;;2.20;;
59872;SDS011;50750;51.636;4.948;2023-06-14T07:07:10;3.50;;;2.00;;
59872;SDS011;50750;51.636;4.948;2023-06-14T07:09:36;3.90;;;2.20;;
59872;SDS011;50750;51.636;4.948;2023-06-14T07:12:03;4.20;;;2.30;;
59872;SDS011;50750;51.636;4.948;2023-06-14T07:14:30;3.00;;;2.00;;
59872;SDS011;50750;51.636;4.948;2023-06-14T07:16:56;3.70;;;2.30;;
59872;SDS011;50750;51.636;4.948;2023-06-14T07:19:22;4.60;;;2.50;;
59872;SDS011;50750;51.636;4.948;2023-06-14T07:21:49;3.90;;;2.20;;
59872;SDS011;50750;51.636;4.948;2023-06-14T07:24:15;4.20;;;2.00;;
59872;SDS011;50750;51.636;4.948;2023-06-14T07:26:42;3.70;;;2.10;;
59872;SDS011;50750;51.636;4.948;2023-06-14T07:29:08;2.70;;;2.10;;
59872;SDS011;50750;51.636;4.948;2023-06-14T07:31:35;3.70;;;2.40;;
59872;SDS011;50750;51.636;4.948;2023-06-14T07:34:01;4.40;;;2.20;;
59872;SDS011;50750;51.636;4.948;2023-06-14T07:36:28;3.40;;;2.00;;
59872;SDS011;50750;51.636;4.948;2023-06-14T07:38:54;3.50;;;2.10;;
59872;SDS011;50750;51.636;4.948;2023-06-14T07:41:21;3.80;;;2.00;;
59872;SDS011;50750;51.636;4.948;2023-06-14T07:43:48;4.50;;;2.30;;
59872;SDS011;50750;51.636;4.948;2023-06-14T07:46:14;3.20;;;2.30;;
59872;SDS011;50750;51.636;4.948;2023-06-14T07:48:41;3.90;;;1.90;;
59872;SDS011;50750;51.636;4.948;2023-06-14T07:51:07;2.60;;;2.00;;
59872;SDS011;50750;51.636;4.948;2023-06-14T07:53:33;3.00;;;2.00;;
59872;SDS011;50750;51.636;4.948;2023-06-14T07:56:00;3.30;;;2.30;;
59872;SDS011;50750;51.636;4.948;2023-06-14T07:58:26;3.70;;;1.90;;
59872;SDS011;50750;51.636;4.948;2023-06-14T08:00:53;3.80;;;2.10;;
59872;SDS011;50750;51.636;4.948;2023-06-14T08:03:19;3.20;;;1.90;;
59872;SDS011;50750;51.636;4.948;2023-06-14T08:05:46;2.50;;;1.70;;
59872;SDS011;50750;51.636;4.948;2023-06-14T08:08:12;4.50;;;2.00;;
59872;SDS011;50750;51.636;4.948;2023-06-14T08:10:39;4.70;;;2.20;;
59872;SDS011;50750;51.636;4.948;2023-06-14T08:13:05;5.30;;;2.20;;
59872;SDS011;50750;51.636;4.948;2023-06-14T08:15:31;3.80;;;2.00;;
59872;SDS011;50750;51.636;4.948;2023-06-14T08:17:58;2.70;;;1.90;;
59872;SDS011;50750;51.636;4.948;2023-06-14T08:20:26;4.10;;;2.20;;
59872;SDS011;50750;51.636;4.948;2023-06-14T08:22:53;3.00;;;1.80;;
59872;SDS011;50750;51.636;4.948;2023-06-14T08:25:22;4.50;;;2.20;;
59872;SDS011;50750;51.636;4.948;2023-06-14T08:27:49;3.80;;;1.80;;
59872;SDS011;50750;51.636;4.948;2023-06-14T08:30:16;3.10;;;1.90;;
59872;SDS011;50750;51.636;4.948;2023-06-14T08:32:43;3.20;;;2.10;;
59872;SDS011;50750;51.636;4.948;2023-06-14T08:35:10;3.20;;;2.10;;
59872;SDS011;50750;51.636;4.948;2023-06-14T08:37:39;3.90;;;2.40;;
59872;SDS011;50750;51.636;4.948;2023-06-14T08:40:16;4.10;;;2.10;;
59872;SDS011;50750;51.636;4.948;2023-06-14T08:42:47;3.00;;;2.00;;
59872;SDS011;50750;51.636;4.948;2023-06-14T08:45:16;3.40;;;2.20;;
59872;SDS011;50750;51.636;4.948;2023-06-14T08:47:42;3.10;;;1.90;;
59872;SDS011;50750;51.636;4.948;2023-06-14T08:50:11;3.60;;;2.20;;
59872;SDS011;50750;51.636;4.948;2023-06-14T08:52:38;2.90;;;1.90;;
59872;SDS011;50750;51.636;4.948;2023-06-14T08:55:11;3.40;;;2.30;;
59872;SDS011;50750;51.636;4.948;2023-06-14T08:57:38;3.30;;;2.10;;
59872;SDS011;50750;51.636;4.948;2023-06-14T09:00:05;3.60;;;2.30;;
59872;SDS011;50750;51.636;4.948;2023-06-14T09:02:39;3.30;;;2.10;;
59872;SDS011;50750;51.636;4.948;2023-06-14T09:05:10;3.40;;;2.10;;
59872;SDS011;50750;51.636;4.948;2023-06-14T09:10:09;2.80;;;2.10;;
59872;SDS011;50750;51.636;4.948;2023-06-14T09:12:37;3.30;;;2.10;;
59872;SDS011;50750;51.636;4.948;2023-06-14T09:15:05;4.20;;;2.10;;
59872;SDS011;50750;51.636;4.948;2023-06-14T09:17:38;4.00;;;2.10;;
59872;SDS011;50750;51.636;4.948;2023-06-14T09:20:06;3.60;;;2.30;;
59872;SDS011;50750;51.636;4.948;2023-06-14T09:22:37;3.30;;;2.00;;
59872;SDS011;50750;51.636;4.948;2023-06-14T09:25:04;3.80;;;2.10;;
59872;SDS011;50750;51.636;4.948;2023-06-14T09:27:32;3.60;;;2.30;;
59872;SDS011;50750;51.636;4.948;2023-06-14T09:29:59;4.00;;;1.90;;
59872;SDS011;50750;51.636;4.948;2023-06-14T09:32:25;2.90;;;2.00;;
59872;SDS011;50750;51.636;4.948;2023-06-14T09:34:52;4.20;;;2.40;;
59872;SDS011;50750;51.636;4.948;2023-06-14T09:37:31;3.30;;;2.10;;
59872;SDS011;50750;51.636;4.948;2023-06-14T09:39:59;3.60;;;2.30;;
59872;SDS011;50750;51.636;4.948;2023-06-14T09:42:26;3.60;;;2.60;;
59872;SDS011;50750;51.636;4.948;2023-06-14T09:44:56;2.90;;;2.00;;
59872;SDS011;50750;51.636;4.948;2023-06-14T09:47:23;4.10;;;2.30;;
59872;SDS011;50750;51.636;4.948;2023-06-14T09:49:51;3.50;;;2.40;;
59872;SDS011;50750;51.636;4.948;2023-06-14T09:54:47;3.00;;;2.00;;
59872;SDS011;50750;51.636;4.948;2023-06-14T09:57:21;3.60;;;2.20;;
59872;SDS011;50750;51.636;4.948;2023-06-14T09:59:52;3.20;;;2.20;;
59872;SDS011;50750;51.636;4.948;2023-06-14T10:05:05;2.90;;;2.10;;
59872;SDS011;50750;51.636;4.948;2023-06-14T10:07:35;3.70;;;2.30;;
59872;SDS011;50750;51.636;4.948;2023-06-14T10:10:23;4.30;;;2.10;;
59872;SDS011;50750;51.636;4.948;2023-06-14T10:12:49;3.30;;;1.90;;
59872;SDS011;50750;51.636;4.948;2023-06-14T10:15:23;3.40;;;2.20;;
59872;SDS011;50750;51.636;4.948;2023-06-14T10:18:20;3.10;;;2.30;;
59872;SDS011;50750;51.636;4.948;2023-06-14T10:23:42;3.30;;;2.00;;
59872;SDS011;50750;51.636;4.948;2023-06-14T10:26:21;3.80;;;2.10;;
59872;SDS011;50750;51.636;4.948;2023-06-14T10:31:43;3.50;;;2.40;;
59872;SDS011;50750;51.636;4.948;2023-06-14T10:34:11;2.80;;;1.90;;
59872;SDS011;50750;51.636;4.948;2023-06-14T10:36:46;3.10;;;2.00;;
59872;SDS011;50750;51.636;4.948;2023-06-14T10:39:28;3.40;;;2.10;;
59872;SDS011;50750;51.636;4.948;2023-06-14T10:41:55;3.10;;;2.10;;
59872;SDS011;50750;51.636;4.948;2023-06-14T10:46:49;2.90;;;2.00;;
59872;SDS011;50750;51.636;4.948;2023-06-14T10:49:19;3.10;;;2.40;;
59872;SDS011;50750;51.636;4.948;2023-06-14T10:51:49;3.30;;;1.90;;
59872;SDS011;50750;51.636;4.948;2023-06-14T10:54:20;3.40;;;2.00;;
59872;SDS011;50750;51.636;4.948;2023-06-14T10:56:48;3.20;;;2.10;;
59872;SDS011;50750;51.636;4.948;2023-06-14T10:59:16;2.90;;;1.90;;
59872;SDS011;50750;51.636;4.948;2023-06-14T11:02:14;3.70;;;2.10;;
59872;SDS011;50750;51.636;4.948;2023-06-14T11:05:14;2.90;;;2.20;;
59872;SDS011;50750;51.636;4.948;2023-06-14T11:07:52;3.40;;;2.20;;
59872;SDS011;50750;51.636;4.948;2023-06-14T11:10:40;4.00;;;2.10;;
59872;SDS011;50750;51.636;4.948;2023-06-14T11:13:08;3.30;;;2.10;;
59872;SDS011;50750;51.636;4.948;2023-06-14T11:15:36;3.80;;;2.00;;
59872;SDS011;50750;51.636;4.948;2023-06-14T11:18:07;3.00;;;1.90;;
59872;SDS011;50750;51.636;4.948;2023-06-14T11:20:35;3.90;;;2.10;;
59872;SDS011;50750;51.636;4.948;2023-06-14T11:23:03;3.60;;;1.90;;
59872;SDS011;50750;51.636;4.948;2023-06-14T11:25:30;3.00;;;2.20;;
59872;SDS011;50750;51.636;4.948;2023-06-14T11:27:57;2.80;;;2.10;;
59872;SDS011;50750;51.636;4.948;2023-06-14T11:30:25;3.30;;;2.10;;
59872;SDS011;50750;51.636;4.948;2023-06-14T11:32:52;4.40;;;2.30;;
59872;SDS011;50750;51.636;4.948;2023-06-14T11:35:23;4.20;;;2.10;;
59872;SDS011;50750;51.636;4.948;2023-06-14T11:37:54;5.10;;;2.50;;
59872;SDS011;50750;51.636;4.948;2023-06-14T11:40:25;3.10;;;2.10;;
59872;SDS011;50750;51.636;4.948;2023-06-14T11:43:00;3.00;;;2.10;;
59872;SDS011;50750;51.636;4.948;2023-06-14T11:45:29;2.90;;;1.90;;
59872;SDS011;50750;51.636;4.948;2023-06-14T11:47:57;2.90;;;1.90;;
59872;SDS011;50750;51.636;4.948;2023-06-14T11:50:25;4.50;;;2.20;;
59872;SDS011;50750;51.636;4.948;2023-06-14T11:52:53;4.20;;;2.00;;
59872;SDS011;50750;51.636;4.948;2023-06-14T11:55:21;3.30;;;2.10;;
59872;SDS011;50750;51.636;4.948;2023-06-14T11:57:49;4.60;;;2.20;;
59872;SDS011;50750;51.636;4.948;2023-06-14T12:00:16;4.00;;;2.20;;
59872;SDS011;50750;51.636;4.948;2023-06-14T12:02:51;2.80;;;2.00;;
59872;SDS011;50750;51.636;4.948;2023-06-14T12:05:20;3.00;;;2.10;;
59872;SDS011;50750;51.636;4.948;2023-06-14T12:07:47;2.70;;;2.00;;
59872;SDS011;50750;51.636;4.948;2023-06-14T12:10:14;4.40;;;2.20;;
59872;SDS011;50750;51.636;4.948;2023-06-14T12:12:41;3.30;;;2.00;;
59872;SDS011;50750;51.636;4.948;2023-06-14T12:15:09;2.90;;;2.00;;
59872;SDS011;50750;51.636;4.948;2023-06-14T12:17:39;3.20;;;2.00;;
59872;SDS011;50750;51.636;4.948;2023-06-14T12:20:12;4.30;;;2.20;;
59872;SDS011;50750;51.636;4.948;2023-06-14T12:22:51;4.10;;;2.10;;
59872;SDS011;50750;51.636;4.948;2023-06-14T12:25:23;2.90;;;1.90;;
59872;SDS011;50750;51.636;4.948;2023-06-14T12:27:55;3.20;;;2.10;;
59872;SDS011;50750;51.636;4.948;2023-06-14T12:30:22;3.80;;;2.20;;
59872;SDS011;50750;51.636;4.948;2023-06-14T12:32:48;3.10;;;2.10;;
59872;SDS011;50750;51.636;4.948;2023-06-14T12:35:15;3.00;;;1.90;;
59872;SDS011;50750;51.636;4.948;2023-06-14T12:37:41;3.10;;;2.00;;
59872;SDS011;50750;51.636;4.948;2023-06-14T12:40:08;3.30;;;2.00;;
59872;SDS011;50750;51.636;4.948;2023-06-14T12:42:35;4.80;;;2.20;;
59872;SDS011;50750;51.636;4.948;2023-06-14T12:45:01;2.90;;;1.90;;
59872;SDS011;50750;51.636;4.948;2023-06-14T12:47:29;2.80;;;2.00;;
59872;SDS011;50750;51.636;4.948;2023-06-14T12:49:56;3.60;;;2.10;;
59872;SDS011;50750;51.636;4.948;2023-06-14T12:52:22;3.90;;;1.80;;
59872;SDS011;50750;51.636;4.948;2023-06-14T12:54:49;2.90;;;2.00;;
59872;SDS011;50750;51.636;4.948;2023-06-14T12:57:16;2.70;;;2.20;;
59872;SDS011;50750;51.636;4.948;2023-06-14T12:59:42;3.80;;;1.90;;
59872;SDS011;50750;51.636;4.948;2023-06-14T13:02:12;2.50;;;1.80;;
59872;SDS011;50750;51.636;4.948;2023-06-14T13:04:38;3.00;;;1.90;;
59872;SDS011;50750;51.636;4.948;2023-06-14T13:07:05;3.00;;;2.10;;
59872;SDS011;50750;51.636;4.948;2023-06-14T13:09:31;3.90;;;1.90;;
59872;SDS011;50750;51.636;4.948;2023-06-14T13:11:58;3.20;;;2.10;;
59872;SDS011;50750;51.636;4.948;2023-06-14T13:14:24;2.90;;;2.00;;
59872;SDS011;50750;51.636;4.948;2023-06-14T13:16:51;4.00;;;2.20;;
59872;SDS011;50750;51.636;4.948;2023-06-14T13:19:17;3.10;;;1.90;;
59872;SDS011;50750;51.636;4.948;2023-06-14T13:21:43;3.60;;;1.90;;
59872;SDS011;50750;51.636;4.948;2023-06-14T13:24:10;3.00;;;2.10;;
59872;SDS011;50750;51.636;4.948;2023-06-14T13:26:36;3.30;;;1.90;;
59872;SDS011;50750;51.636;4.948;2023-06-14T13:29:02;3.50;;;1.90;;
59872;SDS011;50750;51.636;4.948;2023-06-14T13:31:29;2.90;;;1.90;;
59872;SDS011;50750;51.636;4.948;2023-06-14T13:33:56;2.50;;;1.80;;
59872;SDS011;50750;51.636;4.948;2023-06-14T13:36:22;2.70;;;2.00;;
59872;SDS011;50750;51.636;4.948;2023-06-14T13:38:48;3.80;;;2.00;;
59872;SDS011;50750;51.636;4.948;2023-06-14T13:41:15;3.30;;;1.90;;
59872;SDS011;50750;51.636;4.948;2023-06-14T13:43:41;3.00;;;2.10;;
59872;SDS011;50750;51.636;4.948;2023-06-14T13:46:08;3.50;;;2.10;;
59872;SDS011;50750;51.636;4.948;2023-06-14T13:48:34;3.40;;;1.90;;
59872;SDS011;50750;51.636;4.948;2023-06-14T13:51:00;4.40;;;2.20;;
59872;SDS011;50750;51.636;4.948;2023-06-14T13:53:27;2.70;;;2.00;;
59872;SDS011;50750;51.636;4.948;2023-06-14T13:55:53;3.10;;;1.80;;
59872;SDS011;50750;51.636;4.948;2023-06-14T13:58:20;4.30;;;2.00;;
59872;SDS011;50750;51.636;4.948;2023-06-14T14:00:46;4.00;;;2.10;;
59872;SDS011;50750;51.636;4.948;2023-06-14T14:03:12;2.60;;;1.60;;
59872;SDS011;50750;51.636;4.948;2023-06-14T14:05:39;4.40;;;2.50;;
59872;SDS011;50750;51.636;4.948;2023-06-14T14:08:05;5.30;;;1.80;;
59872;SDS011;50750;51.636;4.948;2023-06-14T14:10:32;2.90;;;2.00;;
59872;SDS011;50750;51.636;4.948;2023-06-14T14:12:59;3.70;;;1.90;;
59872;SDS011;50750;51.636;4.948;2023-06-14T14:15:25;3.60;;;1.90;;
59872;SDS011;50750;51.636;4.948;2023-06-14T14:17:52;2.80;;;1.80;;
59872;SDS011;50750;51.636;4.948;2023-06-14T14:20:20;3.00;;;1.80;;
59872;SDS011;50750;51.636;4.948;2023-06-14T14:22:47;2.90;;;1.90;;
59872;SDS011;50750;51.636;4.948;2023-06-14T14:25:13;3.30;;;1.90;;
59872;SDS011;50750;51.636;4.948;2023-06-14T14:27:40;3.30;;;1.90;;
59872;SDS011;50750;51.636;4.948;2023-06-14T14:30:06;3.30;;;2.00;;
59872;SDS011;50750;51.636;4.948;2023-06-14T14:32:33;3.00;;;1.90;;
59872;SDS011;50750;51.636;4.948;2023-06-14T14:35:00;3.30;;;2.10;;
59872;SDS011;50750;51.636;4.948;2023-06-14T14:37:26;2.90;;;1.90;;
59872;SDS011;50750;51.636;4.948;2023-06-14T14:39:52;3.10;;;2.10;;
59872;SDS011;50750;51.636;4.948;2023-06-14T14:42:19;2.80;;;1.90;;
59872;SDS011;50750;51.636;4.948;2023-06-14T14:44:45;2.60;;;1.70;;
59872;SDS011;50750;51.636;4.948;2023-06-14T14:47:12;4.20;;;2.00;;
59872;SDS011;50750;51.636;4.948;2023-06-14T15:32:49;4.60;;;1.90;;
59872;SDS011;50750;51.636;4.948;2023-06-14T15:35:17;2.90;;;1.80;;
59872;SDS011;50750;51.636;4.948;2023-06-14T15:37:44;3.10;;;2.10;;
59872;SDS011;50750;51.636;4.948;2023-06-14T15:40:11;2.70;;;1.70;;
59872;SDS011;50750;51.636;4.948;2023-06-14T15:42:37;4.00;;;2.00;;
59872;SDS011;50750;51.636;4.948;2023-06-14T15:45:04;2.70;;;1.90;;
59872;SDS011;50750;51.636;4.948;2023-06-14T15:47:31;3.50;;;1.70;;
59872;SDS011;50750;51.636;4.948;2023-06-14T15:49:57;4.00;;;1.80;;
59872;SDS011;50750;51.636;4.948;2023-06-14T15:52:24;3.70;;;2.00;;
59872;SDS011;50750;51.636;4.948;2023-06-14T15:54:51;3.60;;;1.90;;
59872;SDS011;50750;51.636;4.948;2023-06-14T15:57:17;2.80;;;1.80;;